KCDS/CDS METAR and TAF weather

Enter ICAO airport designator
Station Type Date Time Source
KCDS METAR 2021/07/30 23:53 UTC NOAA

KCDS 302353Z AUTO 17006KT 10SM FEW095 33/16 A3004 RMK AO2 SLP144 T03330161 10361 20328 56012


Station Type Date Time Source
KCDS Decoded METAR 2021/07/30 23:53 UTC NOAA

CHILDRESS MUNICIPAL AIRPORT, TX, United States (KCDS) 34-26N 100-17W 594M
Jul 30, 2021 - 07:53 PM EDT / 2021.07.30 2353 UTC
Wind: from the S (170 degrees) at 7 MPH (6 KT):0
Visibility: 10 mile(s):0
Sky conditions: mostly clear
Temperature: 91.9 F (33.3 C)
Dew Point: 61.0 F (16.1 C)
Relative Humidity: 35%
Pressure (altimeter): 30.04 in. Hg (1017 hPa)
Pressure tendency: 0.04 inches (1.2 hPa) lower than three hours ago
ob: KCDS 302353Z AUTO 17006KT 10SM FEW095 33/16 A3004 RMK AO2 SLP144 T03330161 10361 20328 56012
cycle: 0

Station Type Date Time Source
KCDS TAF 2021/07/30 18:36 UTC NOAA

TAF KCDS 301735Z 3018/3118 17008KT P6SM SCT050

Example: see airport list